createdAt,value
2018-05-17T00:00:22.506Z,96730.81
2018-05-17T00:02:50.882Z,96736.31
2018-05-17T00:05:19.101Z,96735.03
2018-05-17T00:07:47.293Z,96734.19
2018-05-17T00:10:15.898Z,96735.05
2018-05-17T00:12:44.097Z,96739.71
2018-05-17T00:15:12.349Z,96733.38
2018-05-17T00:17:40.531Z,96738.44
2018-05-17T00:20:08.737Z,96739.28
2018-05-17T00:22:36.918Z,96737.17
2018-05-17T00:25:05.563Z,96737.57
2018-05-17T00:27:33.749Z,96732.48
2018-05-17T00:30:01.942Z,96735.05
2018-05-17T00:32:31.477Z,96740.97
2018-05-17T00:34:59.692Z,96744.38
2018-05-17T00:37:27.880Z,96744.80
2018-05-17T00:39:56.074Z,96738.85
2018-05-17T00:42:24.287Z,96732.92
2018-05-17T00:44:54.098Z,96729.53
2018-05-17T00:47:22.289Z,96729.53
2018-05-17T00:49:50.491Z,96727.84
2018-05-17T00:52:18.771Z,96729.13
2018-05-17T00:54:46.877Z,96731.66
2018-05-17T00:57:15.042Z,96734.63
2018-05-17T00:59:49.925Z,96729.13
2018-05-17T01:02:21.601Z,96730.38
2018-05-17T01:04:49.785Z,96732.95
2018-05-17T01:07:18.710Z,96731.24
2018-05-17T01:09:46.898Z,96726.58
2018-05-17T01:12:15.088Z,96732.09
2018-05-17T01:14:43.295Z,96729.53
2018-05-17T01:17:11.473Z,96727.83
2018-05-17T01:19:39.646Z,96731.66
2018-05-17T01:22:07.857Z,96736.74
2018-05-17T01:24:36.161Z,96735.06
2018-05-17T01:27:04.336Z,96730.38
2018-05-17T01:29:34.283Z,96735.03
2018-05-17T01:32:02.480Z,96735.46
2018-05-17T01:34:30.655Z,96730.81
2018-05-17T01:37:10.504Z,96732.48
2018-05-17T01:39:38.665Z,96728.69
2018-05-17T01:42:06.958Z,96724.02
2018-05-17T01:44:35.047Z,96729.09
2018-05-17T01:47:03.225Z,96726.13
2018-05-17T01:49:31.397Z,96732.06
2018-05-17T01:52:15.527Z,96734.17
2018-05-17T01:54:43.728Z,96729.95
2018-05-17T01:57:11.906Z,96729.51
2018-05-17T01:59:40.070Z,96731.64
2018-05-17T02:02:08.241Z,96728.27
2018-05-17T02:04:36.949Z,96728.23
2018-05-17T02:07:05.128Z,96727.83
2018-05-17T02:09:33.613Z,96729.52
2018-05-17T02:12:01.816Z,96731.20
2018-05-17T02:14:29.958Z,96731.64
2018-05-17T02:16:58.159Z,96736.75
2018-05-17T02:19:26.314Z,96740.11
2018-05-17T02:21:54.518Z,96741.83
2018-05-17T02:24:22.692Z,96741.40
2018-05-17T02:26:50.892Z,96738.84
2018-05-17T02:29:19.081Z,96737.57
2018-05-17T02:31:49.380Z,96744.37
2018-05-17T02:34:17.540Z,96738.86
2018-05-17T02:36:45.711Z,96741.41
2018-05-17T02:39:13.904Z,96743.11
2018-05-17T02:41:42.074Z,96745.22
2018-05-17T02:44:14.551Z,96740.97
2018-05-17T02:46:42.734Z,96744.37
2018-05-17T02:49:11.021Z,96743.94
2018-05-17T02:51:39.119Z,96743.94
2018-05-17T02:54:07.986Z,96751.12
2018-05-17T02:56:36.167Z,96744.36
2018-05-17T02:59:04.377Z,96747.77
2018-05-17T03:01:32.566Z,96739.72
2018-05-17T03:04:00.723Z,96745.22
2018-05-17T03:06:28.908Z,96745.62
2018-05-17T03:08:57.096Z,96744.34
2018-05-17T03:11:25.277Z,96751.98
2018-05-17T03:13:53.457Z,96751.16
2018-05-17T03:16:21.638Z,96745.66
2018-05-17T03:18:49.812Z,96751.14
2018-05-17T03:21:18.022Z,96746.47
2018-05-17T03:23:46.190Z,96745.65
2018-05-17T03:26:14.387Z,96748.62
2018-05-17T03:28:42.572Z,96751.12
2018-05-17T03:31:11.072Z,96748.59
2018-05-17T03:33:39.712Z,96739.28
2018-05-17T03:36:09.474Z,96742.66
2018-05-17T03:38:37.931Z,96732.49
2018-05-17T03:41:06.197Z,96736.72
2018-05-17T03:43:34.404Z,96741.41
2018-05-17T03:46:02.584Z,96732.06
2018-05-17T03:48:36.482Z,96739.69
2018-05-17T03:51:04.670Z,96737.58
2018-05-17T03:53:32.871Z,96735.04
2018-05-17T03:56:01.076Z,96735.03
2018-05-17T03:58:32.408Z,96737.98
2018-05-17T04:01:12.443Z,96732.92
2018-05-17T04:03:52.414Z,96740.95
2018-05-17T04:06:42.060Z,96743.92
2018-05-17T04:09:10.762Z,96744.78
2018-05-17T04:11:38.952Z,96747.77
2018-05-17T04:14:07.124Z,96745.65
2018-05-17T04:16:35.314Z,96748.19
2018-05-17T04:19:03.490Z,96752.86
2018-05-17T04:21:31.675Z,96757.95
2018-05-17T04:23:59.856Z,96752.88
2018-05-17T04:26:28.046Z,96757.11
2018-05-17T04:28:56.229Z,96763.48
2018-05-17T04:31:24.404Z,96765.59
2018-05-17T04:33:52.978Z,96754.57
2018-05-17T04:36:21.198Z,96765.14
2018-05-17T04:38:49.382Z,96762.59
2018-05-17T04:41:28.056Z,96770.68
2018-05-17T04:43:56.254Z,96770.67
2018-05-17T04:46:24.447Z,96780.41
2018-05-17T04:48:52.607Z,96774.49
2018-05-17T04:51:21.965Z,96772.38
2018-05-17T04:53:50.886Z,96774.50
2018-05-17T04:56:19.056Z,96776.59
2018-05-17T04:58:53.415Z,96779.15
2018-05-17T05:01:21.584Z,96782.97
2018-05-17T05:03:50.721Z,96782.54
2018-05-17T05:06:19.319Z,96781.70
2018-05-17T05:08:47.491Z,96776.20
2018-05-17T05:11:15.692Z,96776.20
2018-05-17T05:13:45.639Z,96771.97
2018-05-17T05:16:17.197Z,96775.37
2018-05-17T05:18:45.339Z,96770.29
2018-05-17T05:21:13.544Z,96774.50
2018-05-17T05:23:41.752Z,96780.45
2018-05-17T05:26:10.057Z,96776.62
2018-05-17T05:28:38.220Z,96785.11
2018-05-17T05:31:06.427Z,96794.87
2018-05-17T05:33:34.585Z,96793.59
2018-05-17T05:36:02.761Z,96789.34
2018-05-17T05:38:31.044Z,96791.91
2018-05-17T05:40:59.494Z,96798.66
2018-05-17T05:43:27.667Z,96792.73
2018-05-17T05:45:56.148Z,96798.66
2018-05-17T05:48:24.309Z,96794.84
2018-05-17T05:50:52.653Z,96800.78
2018-05-17T05:53:21.192Z,96818.63
2018-05-17T05:55:49.620Z,96805.91
2018-05-17T05:58:18.084Z,96802.08
2018-05-17T06:00:46.440Z,96805.47
2018-05-17T06:03:14.986Z,96810.14
2018-05-17T06:05:43.488Z,96813.55
2018-05-17T06:08:11.927Z,96819.48
2018-05-17T06:10:40.127Z,96816.08
2018-05-17T06:13:08.292Z,96814.80
2018-05-17T06:15:36.471Z,96821.59
2018-05-17T06:18:04.821Z,96818.62
2018-05-17T06:23:07.775Z,96830.06
2018-05-17T06:25:36.276Z,96825.83
2018-05-17T06:28:04.474Z,96833.05
2018-05-17T06:30:32.774Z,96833.88
2018-05-17T06:33:01.233Z,96829.22
2018-05-17T06:35:29.746Z,96827.96
2018-05-17T06:37:57.935Z,96831.33
2018-05-17T06:40:26.088Z,96832.20
2018-05-17T06:42:54.591Z,96830.93
2018-05-17T06:45:22.749Z,96827.52
2018-05-17T06:47:51.538Z,96834.72
2018-05-17T06:50:19.715Z,96829.64
2018-05-17T06:52:57.284Z,96829.66
2018-05-17T06:55:25.455Z,96816.52
2018-05-17T06:57:53.615Z,96827.95
2018-05-17T07:00:21.777Z,96825.41
2018-05-17T07:02:55.910Z,96824.56
2018-05-17T07:05:24.067Z,96822.84
2018-05-17T07:07:52.214Z,96830.08
2018-05-17T07:10:20.379Z,96829.22
2018-05-17T07:12:48.555Z,96834.30
2018-05-17T07:15:17.387Z,96838.14
2018-05-17T07:17:55.478Z,96838.56
2018-05-17T07:20:24.002Z,96831.77
2018-05-17T07:22:52.167Z,96835.59
2018-05-17T07:25:20.361Z,96836.00
2018-05-17T07:27:48.512Z,96836.84
2018-05-17T07:30:16.681Z,96841.09
2018-05-17T07:32:44.873Z,96845.36
2018-05-17T07:35:13.029Z,96850.83
2018-05-17T07:37:41.224Z,96844.03
2018-05-17T07:40:22.283Z,96838.47
2018-05-17T07:42:56.527Z,96845.23
2018-05-17T07:45:34.545Z,96842.64
2018-05-17T07:48:02.732Z,96844.31
2018-05-17T07:50:34.317Z,96842.54
2018-05-17T07:53:02.509Z,96840.81
2018-05-17T07:55:30.699Z,96838.63
2018-05-17T07:57:58.845Z,96844.55
2018-05-17T08:00:27.074Z,96840.70
2018-05-17T08:02:55.232Z,96843.66
2018-05-17T08:05:23.412Z,96843.18
2018-05-17T08:07:52.299Z,96842.70
2018-05-17T08:10:20.472Z,96840.95
2018-05-17T08:12:48.657Z,96836.64
2018-05-17T08:15:30.545Z,96844.66
2018-05-17T08:17:58.727Z,96837.77
2018-05-17T08:20:27.027Z,96840.62
2018-05-17T08:22:55.189Z,96847.28
2018-05-17T08:25:24.016Z,96840.26
2018-05-17T08:27:55.845Z,96844.05
2018-05-17T08:30:24.005Z,96841.84
2018-05-17T08:32:52.172Z,96842.62
2018-05-17T08:35:20.382Z,96839.11
2018-05-17T08:37:48.564Z,96838.63
2018-05-17T08:40:17.170Z,96842.27
2018-05-17T08:42:57.679Z,96838.38
2018-05-17T08:45:25.826Z,96839.75
2018-05-17T08:47:54.027Z,96840.20
2018-05-17T08:50:22.212Z,96844.44
2018-05-17T08:52:50.373Z,96842.91
2018-05-17T09:08:38.390Z,96862.19
2018-05-17T09:11:06.642Z,96863.13
2018-05-17T09:13:34.954Z,96868.75
2018-05-17T09:16:03.098Z,96882.50
2018-05-17T09:18:31.390Z,96880.04
2018-05-17T09:20:59.601Z,96877.44
2018-05-17T09:23:27.808Z,96877.00
2018-05-17T09:25:55.979Z,96883.31
2018-05-17T09:28:24.178Z,96887.56
2018-05-17T09:30:52.385Z,96882.50
2018-05-17T09:33:20.591Z,96888.52
2018-05-17T09:35:48.804Z,96884.75
2018-05-17T09:38:16.985Z,96885.19
2018-05-17T09:40:45.220Z,96891.68
2018-05-17T09:43:13.434Z,96887.05
2018-05-17T09:45:41.826Z,96889.59
2018-05-17T09:48:10.049Z,96893.00
2018-05-17T09:50:38.312Z,96898.16
2018-05-17T09:53:06.509Z,96892.22
2018-05-17T09:55:35.445Z,96897.78
2018-05-17T09:58:03.654Z,96900.73
2018-05-17T10:00:31.905Z,96899.39
2018-05-17T10:03:00.183Z,96895.50
2018-05-17T10:05:28.443Z,96892.48
2018-05-17T10:08:01.771Z,96891.21
2018-05-17T10:10:30.020Z,96892.45
2018-05-17T10:12:58.431Z,96888.98
2018-05-17T10:15:26.677Z,96889.75
2018-05-17T10:17:54.908Z,96893.86
2018-05-17T10:20:23.101Z,96889.94
2018-05-17T10:22:51.316Z,96884.31
2018-05-17T10:25:19.505Z,96885.91
2018-05-17T10:27:47.725Z,96885.42
2018-05-17T10:30:15.963Z,96888.30
2018-05-17T10:32:44.170Z,96884.59
2018-05-17T10:35:12.357Z,96882.45
2018-05-17T10:37:40.570Z,96892.19
2018-05-17T10:40:08.792Z,96885.25
2018-05-17T10:42:36.978Z,96895.84
2018-05-17T10:45:05.333Z,96889.39
2018-05-17T10:47:33.529Z,96888.00
2018-05-17T10:50:02.166Z,96894.30
2018-05-17T10:52:31.004Z,96894.71
2018-05-17T10:54:59.231Z,96884.44
2018-05-17T10:57:27.434Z,96890.27
2018-05-17T10:59:55.627Z,96883.81
2018-05-17T11:02:23.881Z,96892.75
2018-05-17T11:04:52.089Z,96880.80
2018-05-17T11:07:20.416Z,96885.45
2018-05-17T11:09:48.586Z,96879.22
2018-05-17T11:12:16.932Z,96873.06
2018-05-17T11:14:45.069Z,96871.58
2018-05-17T11:17:13.288Z,96869.55
2018-05-17T11:19:41.729Z,96870.20
2018-05-17T11:22:11.600Z,96870.31
2018-05-17T11:24:39.823Z,96873.00
2018-05-17T11:27:08.024Z,96871.03
2018-05-17T11:29:36.275Z,96870.07
2018-05-17T11:32:04.507Z,96872.67
2018-05-17T11:34:32.725Z,96873.53
2018-05-17T11:37:00.939Z,96866.75
2018-05-17T11:39:29.877Z,96866.19
2018-05-17T11:41:58.095Z,96861.91
2018-05-17T11:44:27.888Z,96856.20
2018-05-17T11:46:56.118Z,96864.73
2018-05-17T11:49:24.330Z,96865.41
2018-05-17T11:51:52.517Z,96866.27
2018-05-17T11:54:20.742Z,96863.47
2018-05-17T11:56:48.986Z,96862.81
2018-05-17T11:59:17.196Z,96864.30
2018-05-17T12:01:45.422Z,96854.69
2018-05-17T12:04:13.614Z,96856.72
2018-05-17T12:06:41.851Z,96858.97
2018-05-17T12:09:11.709Z,96860.81
2018-05-17T12:11:39.928Z,96862.34
2018-05-17T12:14:08.159Z,96851.75
2018-05-17T12:16:36.352Z,96851.36
2018-05-17T12:19:04.563Z,96849.94
2018-05-17T12:21:34.831Z,96853.57
2018-05-17T12:24:03.398Z,96853.53
2018-05-17T12:26:32.518Z,96853.53
2018-05-17T12:29:01.635Z,96857.06
2018-05-17T12:31:29.942Z,96855.67
2018-05-17T12:33:58.114Z,96859.63
2018-05-17T12:36:26.330Z,96861.34
2018-05-17T12:38:54.594Z,96861.16
2018-05-17T12:41:22.882Z,96861.05
2018-05-17T12:43:51.073Z,96861.73
2018-05-17T12:46:19.328Z,96868.27
2018-05-17T12:48:47.526Z,96878.01
2018-05-17T12:51:15.701Z,96871.86
2018-05-17T12:53:43.911Z,96871.27
2018-05-17T12:56:12.139Z,96871.66
2018-05-17T12:58:42.586Z,96878.68
2018-05-17T13:01:13.086Z,96874.07
2018-05-17T13:03:41.328Z,96881.17
2018-05-17T13:06:09.528Z,96874.12
2018-05-17T13:08:37.728Z,96874.12
2018-05-17T13:11:05.952Z,96872.37
2018-05-17T13:13:34.206Z,96869.25
2018-05-17T13:16:02.451Z,96864.81
2018-05-17T13:18:30.698Z,96862.23
2018-05-17T13:20:58.949Z,96861.05
2018-05-17T13:23:27.139Z,96851.85
2018-05-17T13:25:55.382Z,96851.61
2018-05-17T13:28:23.602Z,96846.73
2018-05-17T13:30:51.830Z,96853.83
2018-05-17T13:33:20.236Z,96849.38
2018-05-17T13:35:48.471Z,96843.19
2018-05-17T13:38:16.667Z,96846.47
2018-05-17T13:40:44.945Z,96844.95
2018-05-17T13:43:13.155Z,96847.02
2018-05-17T13:45:41.364Z,96843.52
2018-05-17T13:48:09.585Z,96843.80
2018-05-17T13:50:37.866Z,96849.00
2018-05-17T13:53:06.143Z,96848.74
2018-05-17T13:55:34.427Z,96850.09
2018-05-17T13:58:02.549Z,96853.13
2018-05-17T14:00:30.781Z,96855.88
2018-05-17T14:02:58.975Z,96849.61
2018-05-17T14:05:28.195Z,96851.08
2018-05-17T14:07:56.405Z,96847.38
2018-05-17T14:10:24.944Z,96845.23
2018-05-17T14:12:53.224Z,96856.59
2018-05-17T14:15:21.466Z,96852.20
2018-05-17T14:17:50.112Z,96858.73
2018-05-17T14:20:18.594Z,96860.24
2018-05-17T14:22:47.245Z,96856.34
2018-05-17T14:25:15.499Z,96855.66
2018-05-17T14:27:43.734Z,96861.10
2018-05-17T14:30:12.096Z,96859.91
2018-05-17T14:32:40.302Z,96861.00
2018-05-17T14:35:08.566Z,96862.91
2018-05-17T14:37:37.001Z,96862.63
2018-05-17T14:40:05.300Z,96859.98
2018-05-17T14:42:34.286Z,96860.57
2018-05-17T14:45:05.466Z,96859.89
2018-05-17T14:47:34.513Z,96857.09
2018-05-17T14:50:02.727Z,96857.33
2018-05-17T14:52:30.935Z,96865.73
2018-05-17T14:55:01.041Z,96870.38
2018-05-17T14:57:29.539Z,96864.64
2018-05-17T14:59:58.221Z,96871.27
2018-05-17T15:02:26.521Z,96868.73
2018-05-17T15:04:55.158Z,96875.03
2018-05-17T15:07:24.165Z,96871.05
2018-05-17T15:09:52.826Z,96876.56
2018-05-17T15:12:21.346Z,96874.00
2018-05-17T15:14:49.599Z,96878.25
2018-05-17T15:17:17.830Z,96873.91
2018-05-17T15:19:46.055Z,96871.38
2018-05-17T15:22:14.360Z,96868.44
2018-05-17T15:24:42.940Z,96866.32
2018-05-17T15:27:11.169Z,96872.50
2018-05-17T15:29:39.405Z,96871.82
2018-05-17T15:32:07.681Z,96869.25
2018-05-17T15:34:35.876Z,96876.89
2018-05-17T15:37:04.749Z,96879.52
2018-05-17T15:39:33.113Z,96877.38
2018-05-17T15:42:01.510Z,96878.40
2018-05-17T15:44:29.736Z,96878.06
2018-05-17T15:46:57.958Z,96882.34
2018-05-17T15:49:27.960Z,96880.33
2018-05-17T15:51:56.340Z,96882.49
2018-05-17T15:54:24.591Z,96885.03
2018-05-17T15:56:52.852Z,96877.58
2018-05-17T15:59:21.103Z,96871.53
2018-05-17T16:01:49.328Z,96879.68
2018-05-17T16:04:17.581Z,96874.39
2018-05-17T16:06:45.801Z,96874.26
2018-05-17T16:09:14.022Z,96879.00
2018-05-17T16:11:42.287Z,96887.94
2018-05-17T16:14:10.492Z,96890.53
2018-05-17T16:16:38.733Z,96892.17
2018-05-17T16:19:06.928Z,96891.18
2018-05-17T16:21:35.259Z,96892.59
2018-05-17T16:24:03.590Z,96892.46
2018-05-17T16:26:31.865Z,96900.84
2018-05-17T16:29:00.055Z,96900.91
2018-05-17T16:31:28.235Z,96896.77
2018-05-17T16:33:56.463Z,96900.63
2018-05-17T16:36:24.669Z,96904.86
2018-05-17T16:38:52.886Z,96907.39
2018-05-17T16:41:21.108Z,96911.24
2018-05-17T16:43:49.328Z,96912.92
2018-05-17T16:46:17.559Z,96910.25
2018-05-17T16:48:45.814Z,96908.94
2018-05-17T16:51:14.012Z,96915.17
2018-05-17T16:53:42.199Z,96918.98
2018-05-17T16:56:10.485Z,96925.55
2018-05-17T16:58:38.784Z,96919.20
2018-05-17T17:01:07.727Z,96931.42
2018-05-17T17:03:36.029Z,96928.06
2018-05-17T17:06:04.281Z,96934.16
2018-05-17T17:08:32.470Z,96929.97
2018-05-17T17:11:01.435Z,96932.44
2018-05-17T17:13:29.822Z,96934.88
2018-05-17T17:15:58.338Z,96931.05
2018-05-17T17:18:27.389Z,96933.69
2018-05-17T17:20:55.666Z,96934.31
2018-05-17T17:23:24.391Z,96943.81
2018-05-17T17:25:54.354Z,96939.70
2018-05-17T17:28:25.044Z,96937.16
2018-05-17T17:30:53.333Z,96937.20
2018-05-17T17:33:22.563Z,96935.45
2018-05-17T17:35:50.857Z,96935.52
2018-05-17T17:38:19.143Z,96931.88
2018-05-17T17:40:50.532Z,96933.34
2018-05-17T17:43:18.882Z,96936.96
2018-05-17T17:45:47.723Z,96938.49
2018-05-17T17:48:17.725Z,96943.27
2018-05-17T17:50:46.356Z,96941.70
2018-05-17T17:53:14.578Z,96946.12
2018-05-17T17:55:42.808Z,96949.12
2018-05-17T17:58:11.091Z,96949.25
2018-05-17T18:00:39.400Z,96948.55
2018-05-17T18:03:07.871Z,96950.30
2018-05-17T18:05:36.135Z,96954.64
2018-05-17T18:08:04.462Z,96950.80
2018-05-17T18:10:32.699Z,96957.70
2018-05-17T18:13:00.984Z,96952.63
2018-05-17T18:15:30.430Z,96955.22
2018-05-17T18:17:58.643Z,96953.14
2018-05-17T18:20:29.625Z,96954.44
2018-05-17T18:22:57.916Z,96948.50
2018-05-17T18:25:26.132Z,96948.14
2018-05-17T18:27:54.480Z,96948.70
2018-05-17T18:30:23.309Z,96948.33
2018-05-17T18:32:54.347Z,96951.36
2018-05-17T18:35:22.611Z,96939.09
2018-05-17T18:37:51.771Z,96954.92
2018-05-17T18:40:22.134Z,96957.96
2018-05-17T18:42:50.342Z,96956.76
2018-05-17T18:45:19.077Z,96960.64
2018-05-17T18:47:47.322Z,96970.06
2018-05-17T18:50:20.313Z,96977.80
2018-05-17T18:52:49.503Z,96993.11
2018-05-17T18:55:22.917Z,96994.02
2018-05-17T18:57:49.476Z,97002.53
2018-05-17T19:00:20.379Z,97001.30
2018-05-17T19:02:48.654Z,96997.08
2018-05-17T19:05:17.470Z,96995.43
2018-05-17T19:07:45.694Z,96993.73
2018-05-17T19:10:13.872Z,96999.70
2018-05-17T19:12:42.334Z,97006.95
2018-05-17T19:15:20.931Z,97016.33
2018-05-17T19:17:49.170Z,97013.38
2018-05-17T19:20:17.448Z,97018.95
2018-05-17T19:22:47.043Z,97025.79
2018-05-17T19:25:15.400Z,97026.20
2018-05-17T19:27:43.697Z,97029.20
2018-05-17T19:33:08.723Z,97028.37
2018-05-17T19:35:37.208Z,97043.28
2018-05-17T19:38:05.417Z,97046.68
2018-05-17T19:40:33.612Z,97049.27
2018-05-17T19:43:01.798Z,97050.56
2018-05-17T19:45:30.150Z,97048.86
2018-05-17T19:47:58.478Z,97062.07
2018-05-17T19:50:26.839Z,97059.97
2018-05-17T19:52:55.044Z,97063.79
2018-05-17T19:55:23.250Z,97056.56
2018-05-17T19:57:51.696Z,97067.63
2018-05-17T20:00:20.268Z,97068.50
2018-05-17T20:02:48.469Z,97062.55
2018-05-17T20:05:17.000Z,97063.41
2018-05-17T20:07:45.202Z,97063.84
2018-05-17T20:10:13.385Z,97073.22
2018-05-17T20:12:41.972Z,97067.27
2018-05-17T20:15:10.194Z,97062.16
2018-05-17T20:17:39.074Z,97063.42
